Date,TemperatureHighF,TemperatureAvgF,TemperatureLowF,DewpointHighF,DewpointAvgF,DewpointLowF,HumidityHigh,HumidityAvg,HumidityLow,PressureMaxIn,PressureMinIn,WindSpeedMaxMPH,WindSpeedAvgMPH,GustSpeedMaxMPH,PrecipitationSumIn
2013-1-1,75,65,54,68,62,53,99,91,71,30.09,29.93,14,2,18,0.10
2013-1-2,54,49,42,53,46,41,96,89,82,30.19,30.00,5,1,9,0.01
2013-1-3,48,40,36,41,36,29,97,83,59,30.37,30.18,6,1,10,0.02
2013-1-4,57,43,34,36,30,28,80,63,35,30.44,30.32,4,1,10,0.00
2013-1-5,50,46,39,39,35,31,77,65,57,30.37,30.25,5,1,8,0.00
2013-1-6,50,46,40,47,43,38,97,89,67,30.29,30.19,4,1,9,0.07
2013-1-7,61,48,36,41,38,34,96,72,40,30.33,30.20,8,1,12,0.00
2013-1-8,66,57,47,59,52,40,90,82,72,30.25,30.13,9,2,10,0.00
2013-1-9,68,64,61,66,62,57,99,94,85,30.24,30.16,9,3,13,0.00
2013-1-10,72,67,61,69,65,60,99,96,88,30.23,30.02,10,2,18,0.69
2013-1-11,79,70,61,70,67,61,99,90,67,30.14,30.05,9,2,18,0.00
2013-1-12,76,71,68,71,68,67,99,92,77,30.10,29.97,7,2,15,0.00
2013-1-13,76,71,61,71,69,60,97,92,84,30.02,29.93,16,4,22,0.04
2013-1-14,63,52,42,60,52,42,99,97,90,30.11,30.01,4,1,7,0.06
2013-1-15,66,54,43,66,53,42,100,98,93,30.07,29.93,4,1,12,0.55
2013-1-16,55,47,40,55,46,40,99,97,93,30.06,29.94,7,1,8,0.01
2013-1-17,50,41,35,39,36,32,97,82,60,30.37,30.05,13,3,21,0.00
2013-1-18,58,44,35,39,36,34,93,77,46,30.52,30.37,7,2,10,0.00
2013-1-19,64,48,37,47,40,34,98,75,52,30.40,30.24,5,1,9,0.00
2013-1-20,67,50,37,50,44,36,99,82,45,30.28,30.13,4,0,6,0.00
2013-1-21,66,52,39,46,43,39,99,74,45,30.21,30.13,5,1,8,0.01
2013-1-22,61,46,37,41,34,29,93,65,41,30.37,30.21,5,1,7,0.00
2013-1-23,69,51,34,51,44,33,96,79,50,30.41,30.29,6,1,12,0.00
2013-1-24,74,57,40,58,51,40,99,84,54,30.35,30.22,4,1,10,0.00
2013-1-25,71,59,46,58,54,45,99,85,60,30.28,30.15,13,2,19,0.00
2013-1-26,74,61,53,62,57,53,99,88,60,30.25,30.18,3,1,8,0.01
2013-1-27,72,60,50,63,57,50,99,91,70,30.32,30.23,4,1,8,0.00
2013-1-28,76,64,56,66,61,56,99,91,65,30.28,30.15,6,1,9,0.02
2013-1-29,77,71,66,71,69,65,98,93,81,30.14,29.86,11,4,24,0.18
2013-1-30,73,61,43,70,57,31,97,87,60,30.12,29.70,13,4,29,0.75
2013-1-31,59,44,30,39,32,27,98,68,31,30.32,30.13,6,1,12,0.00
2013-2-1,61,47,38,39,36,28,91,68,37,30.40,30.30,6,1,9,0.00
2013-2-2,67,50,34,50,38,24,98,66,41,30.36,30.19,8,1,11,0.00
2013-2-3,67,54,40,51,41,31,98,70,26,30.26,30.13,6,1,9,0.00
2013-2-4,64,53,43,53,43,35,96,71,50,30.12,29.99,3,0,5,0.09
2013-2-5,69,59,52,63,57,52,99,94,80,30.03,29.95,6,1,7,0.36
2013-2-6,72,60,51,61,57,50,99,90,65,30.15,30.01,8,1,9,0.00
2013-2-7,75,63,51,62,58,50,98,87,61,30.02,29.80,9,2,20,1.93
2013-2-8,72,59,48,61,54,48,99,85,57,30.16,29.94,7,1,9,0.00
2013-2-9,54,49,44,50,45,41,89,86,79,30.25,30.17,9,2,9,0.00
2013-2-24,68,39,-90,100,22,-100,100,70,65,29.91,29.80,4,-142,8,0.00
2013-2-25,134,51,-90,100,47,-100,100,93,90,29.84,29.49,9,-40,20,2.22
2013-2-26,64,54,47,63,44,37,97,71,45,29.92,29.52,10,2,19,0.00
2013-2-27,66,52,43,47,44,39,97,76,39,30.03,29.92,9,1,13,0.00
2013-2-28,58,49,38,46,37,29,95,66,35,30.10,29.99,10,1,13,0.00
2013-3-1,59,46,36,36,33,29,92,64,36,30.15,30.00,8,1,14,0.00
2013-3-2,46,38,30,30,27,24,87,67,50,30.22,30.11,11,2,15,0.00
2013-3-3,53,39,27,32,24,21,90,61,30,30.25,30.13,8,1,12,0.00
2013-3-4,66,51,32,54,44,31,97,78,54,30.17,29.97,11,2,18,0.00
2013-3-5,73,62,44,63,54,39,87,75,55,30.15,29.92,17,3,20,0.00
2013-3-6,60,48,38,39,31,27,87,56,32,30.28,30.15,8,2,14,0.00
2013-3-7,64,47,35,44,35,30,95,67,34,30.34,30.21,5,1,9,0.00
2013-3-8,74,53,36,45,39,35,97,67,25,30.31,30.18,7,1,8,0.00
2013-3-9,72,58,44,58,50,42,95,78,43,30.20,30.04,8,2,14,0.00
2013-3-10,74,65,59,64,60,57,93,84,72,30.04,29.92,14,4,27,0.00
2013-3-11,68,56,42,65,53,41,97,89,74,29.98,29.84,7,2,13,0.25
2013-3-12,65,50,37,43,38,35,97,66,36,30.19,29.98,11,2,12,0.00
2013-3-13,66,51,38,40,32,23,95,56,20,30.37,30.19,10,1,16,0.00
2013-3-14,66,48,38,40,28,22,85,49,23,30.45,30.29,8,2,11,0.00
2013-3-15,73,55,38,49,42,37,98,68,33,30.30,30.15,6,1,13,0.00
2013-3-16,76,61,45,58,52,44,99,76,45,30.13,29.98,10,2,22,0.00
2013-3-17,74,63,54,64,59,53,99,88,65,30.01,29.89,7,1,14,0.00
2013-3-18,81,70,61,70,66,60,97,87,66,29.91,29.78,8,2,14,0.00
2013-3-19,78,65,55,62,51,44,90,64,37,30.04,29.88,10,2,11,0.00
2013-3-20,66,57,43,43,37,30,72,48,29,30.11,29.97,6,2,11,0.00
2013-3-21,68,53,40,43,33,25,78,50,22,30.08,29.89,6,1,9,0.00
2013-3-22,67,58,48,58,51,43,87,77,62,29.93,29.84,10,2,15,0.04
2013-3-23,76,66,60,70,63,52,99,89,73,29.88,29.58,11,2,18,0.27
2013-3-24,80,67,47,70,56,33,98,71,39,29.94,29.56,9,3,18,0.00
2013-3-25,58,46,36,34,27,19,76,50,23,30.22,29.94,10,2,15,0.00
2013-3-26,55,43,31,29,27,25,83,55,32,30.37,30.22,9,1,11,0.00
2013-3-27,62,45,28,38,30,26,95,63,28,30.44,30.28,8,1,11,0.00
2013-3-28,71,51,34,43,36,30,98,65,23,30.36,30.24,5,1,12,0.00
2013-3-29,71,56,39,53,46,37,97,72,34,30.33,30.21,8,2,15,0.00
2013-3-30,76,62,48,60,54,48,99,79,44,30.21,30.04,8,2,14,0.00
2013-3-31,79,65,56,66,61,55,99,86,58,30.07,29.89,12,2,18,0.22
2013-4-1,75,61,53,61,56,52,99,86,52,30.08,29.92,6,1,8,0.00
2013-4-2,80,64,48,57,51,47,99,69,32,30.13,30.01,6,1,12,0.01
2013-4-3,64,58,53,60,56,51,99,91,84,30.07,29.70,14,2,30,1.02
2013-4-4,70,58,53,61,55,50,97,88,69,29.96,29.86,5,1,7,0.00
2013-4-5,68,54,47,51,48,45,94,81,50,30.11,29.96,7,2,12,0.00
2013-4-6,75,58,41,52,47,40,98,70,34,30.17,30.09,7,1,12,0.00
2013-4-7,78,63,48,60,56,47,98,79,51,30.14,30.03,6,1,14,0.00
2013-4-8,80,69,59,69,64,59,99,86,61,30.06,29.98,9,2,13,0.01
2013-4-9,81,73,68,71,68,66,97,86,70,30.08,29.96,11,2,16,0.00
2013-4-10,82,72,65,71,68,64,98,86,69,30.02,29.88,11,2,12,0.00
2013-4-11,81,70,58,74,68,57,98,92,80,29.87,29.59,17,4,22,1.46
2013-4-12,75,60,50,57,50,47,97,73,39,29.97,29.80,9,1,9,0.00
2013-4-13,80,66,48,57,51,46,96,64,31,30.06,29.90,6,1,9,0.00
2013-4-14,66,61,57,65,60,56,98,94,81,29.96,29.75,6,1,14,0.78
2013-4-15,80,70,64,73,68,63,99,92,77,30.03,29.82,4,1,8,0.00
2013-4-16,86,74,68,74,70,67,98,87,65,30.11,30.01,6,1,8,0.00
2013-4-17,83,73,67,75,69,65,98,87,69,30.12,30.00,8,1,10,0.00
2013-4-18,80,73,65,73,70,65,99,90,76,30.00,29.86,9,2,13,0.01
2013-4-19,75,55,42,73,54,42,98,94,86,30.17,29.80,9,2,16,0.76
2013-4-20,68,53,38,46,42,37,98,70,36,30.27,30.12,8,1,15,0.00
2013-4-21,73,59,43,53,46,41,95,68,38,30.22,30.11,9,1,14,0.00
2013-4-22,80,64,51,63,57,48,96,79,49,30.14,30.03,7,1,9,0.00
2013-4-23,79,67,58,66,62,57,98,85,62,30.11,30.03,5,1,11,0.00
2013-4-24,73,67,62,69,65,61,99,94,79,30.14,30.01,5,0,10,0.19
2013-4-25,76,62,54,63,55,48,97,79,53,30.28,30.14,6,1,8,0.00
2013-4-26,82,66,53,60,51,44,91,61,40,30.30,30.21,5,1,10,0.00
2013-4-27,83,70,59,67,63,57,98,81,53,30.22,30.05,7,1,13,0.00
2013-4-28,81,70,65,72,67,64,99,90,64,30.07,29.95,6,1,12,0.07
2013-4-29,82,70,64,68,65,63,98,85,55,29.99,29.89,4,0,7,0.04
2013-4-30,82,70,63,71,67,62,99,91,63,29.95,29.88,5,1,10,0.68
2013-5-1,74,68,61,72,67,61,99,96,86,29.93,29.84,14,2,14,4.61
2013-5-2,72,66,62,68,64,61,99,95,80,29.97,29.87,11,2,12,3.60
2013-5-3,73,62,48,66,60,47,99,93,78,29.96,29.81,5,2,10,0.16
2013-5-4,70,56,43,47,42,37,97,65,33,29.98,29.87,7,1,14,0.00
2013-5-5,68,57,46,56,46,42,97,71,45,30.01,29.85,10,1,12,0.00
2013-5-6,71,58,43,55,50,42,98,77,49,30.02,29.91,5,1,12,0.00
2013-5-7,76,63,49,61,56,48,98,80,54,30.04,29.96,4,0,13,0.00
2013-5-8,82,67,55,67,60,54,99,81,44,30.11,30.01,6,0,9,0.00
2013-5-9,83,70,57,69,62,57,99,79,47,30.14,30.05,5,1,11,0.00
2013-5-10,76,68,64,67,65,63,98,92,70,30.13,29.90,6,1,17,0.45
2013-5-11,76,68,61,69,65,61,99,93,77,30.05,29.94,2,0,10,0.40
2013-5-12,79,69,60,65,60,54,99,75,51,30.12,30.00,9,1,12,0.00
2013-5-13,79,64,50,55,48,39,94,61,30,30.28,30.12,5,1,12,0.00
2013-5-14,86,68,51,62,56,50,98,71,35,30.28,30.16,7,1,12,0.00
2013-5-15,86,69,55,64,58,51,98,73,38,30.22,30.04,7,1,9,0.00
2013-5-16,84,73,64,71,66,61,96,82,60,30.05,29.97,5,1,12,0.00
2013-5-17,84,75,66,72,70,65,98,86,65,30.05,29.98,11,2,13,0.00
2013-5-18,86,77,71,75,72,70,98,86,68,30.08,30.00,6,1,9,0.00
2013-5-19,84,75,67,74,72,67,99,88,72,30.04,29.99,7,1,8,0.00
2013-5-20,92,78,69,74,71,68,99,80,48,30.04,29.96,8,1,11,0.01
2013-5-21,88,77,67,75,70,67,99,82,59,29.99,29.88,6,1,13,0.00
2013-5-22,84,74,66,75,69,65,99,85,57,30.05,29.89,7,0,17,0.05
2013-5-23,92,77,64,73,68,64,99,77,42,30.05,29.94,3,0,6,0.00
2013-5-24,88,77,65,70,66,58,99,72,47,30.16,30.02,5,1,14,0.00
2013-5-25,88,72,60,62,56,51,91,60,31,30.23,30.14,5,1,8,0.00
2013-5-26,88,74,60,70,63,58,97,72,39,30.21,30.12,5,1,9,0.00
2013-5-27,87,76,65,71,66,59,98,74,41,30.16,30.07,6,1,12,0.00
2013-5-28,88,74,60,73,67,59,98,82,55,30.09,30.03,5,1,12,0.00
2013-5-29,87,77,69,75,72,69,99,84,63,30.05,30.00,6,1,19,0.01
2013-5-30,85,78,72,74,72,71,96,83,65,30.06,29.99,9,2,15,0.00
2013-5-31,85,78,73,77,73,71,95,86,74,30.05,29.96,6,1,10,0.02
2013-6-1,88,78,73,77,74,71,97,88,69,30.01,29.94,6,1,9,0.01
2013-6-2,92,79,69,75,72,66,99,81,51,29.99,29.84,6,1,11,0.02
2013-6-3,88,77,68,77,73,68,98,89,67,29.92,29.84,3,0,6,1.35
2013-6-4,92,80,71,78,74,71,99,83,55,29.94,29.88,5,1,8,0.01
2013-6-5,90,79,67,79,74,66,98,87,64,29.93,29.83,4,1,12,0.49
2013-6-6,90,75,65,74,69,64,99,84,57,29.87,29.73,3,0,11,0.00
2013-6-7,87,75,68,75,70,67,98,86,59,29.90,29.77,3,0,11,0.01
2013-6-8,89,79,68,76,72,67,98,82,63,30.05,29.88,7,1,12,0.13
2013-6-9,78,73,69,75,72,68,98,94,81,30.02,29.92,7,1,10,0.15
2013-6-10,85,76,70,78,74,70,99,93,76,30.05,29.96,5,0,10,1.05
2013-6-11,95,81,73,80,76,72,99,84,53,30.10,30.00,3,0,9,0.01
2013-6-12,97,82,72,80,75,71,99,80,48,30.09,29.99,5,0,9,0.00
2013-6-13,94,83,73,79,74,72,97,77,51,30.04,29.86,3,1,9,0.00
2013-6-14,93,82,74,78,73,68,97,76,49,29.94,29.84,5,0,8,0.06
2013-6-15,94,81,70,76,72,65,96,74,50,30.01,29.92,5,1,7,0.00
2013-6-16,94,82,75,81,77,74,99,86,58,30.04,29.97,6,0,8,0.72
2013-6-17,92,82,74,79,76,74,98,82,62,30.01,29.94,7,1,14,0.00
2013-6-18,92,82,71,77,74,69,97,79,53,30.00,29.88,7,1,11,1.08
2013-6-19,87,78,70,76,73,69,98,86,67,30.03,29.93,3,0,4,0.00
2013-6-20,90,78,71,77,73,70,98,85,59,30.09,30.00,3,0,12,0.00
2013-6-21,92,77,70,77,73,69,98,87,58,30.11,30.04,4,1,9,0.28
2013-6-22,90,79,70,76,73,70,99,83,56,30.11,30.00,4,0,8,0.00
2013-6-23,89,77,72,78,74,72,98,92,66,30.09,30.02,3,0,10,0.10
2013-6-24,89,79,72,79,75,72,99,89,64,30.16,30.06,3,0,5,0.00
2013-6-25,93,81,71,78,75,70,99,82,60,30.12,30.02,4,1,7,0.00
2013-6-26,93,81,73,80,76,72,99,86,61,30.07,29.96,7,1,8,0.00
2013-6-27,94,83,74,80,76,73,98,81,55,30.02,29.90,2,0,7,0.00
2013-6-28,95,84,76,82,78,76,99,82,57,29.92,29.75,4,1,10,0.00
2013-6-29,95,82,72,79,75,71,97,80,54,29.80,29.66,6,1,17,0.74
2013-6-30,92,80,71,77,70,65,99,75,41,29.77,29.70,4,0,9,0.00
2013-7-1,89,79,69,70,68,66,93,72,48,29.90,29.77,3,0,6,0.00
2013-7-2,92,79,67,73,70,66,95,75,47,29.99,29.88,2,0,5,0.00
2013-7-3,86,76,72,75,72,70,98,89,65,30.02,29.93,4,0,8,0.11
2013-7-4,86,76,70,77,74,69,98,91,71,30.00,29.91,6,1,8,2.70
2013-7-5,77,74,72,75,73,71,98,96,93,30.08,29.98,4,1,7,0.29
2013-7-6,77,73,71,74,72,70,99,97,90,30.05,29.98,4,0,6,2.80
2013-7-7,81,75,72,77,74,72,99,98,85,30.12,30.01,6,0,10,0.96
2013-7-8,87,76,72,79,74,72,99,95,74,30.17,30.08,4,0,8,0.75
2013-7-9,94,80,70,79,75,70,99,84,57,30.19,30.07,6,0,9,0.01
2013-7-10,92,79,72,78,75,72,99,90,62,30.11,29.97,5,0,14,0.02
2013-7-11,82,76,72,78,74,71,99,96,83,30.00,29.87,4,0,9,3.19
2013-7-12,93,76,69,78,72,68,99,89,60,29.93,29.85,3,0,6,0.96
2013-7-13,91,76,69,79,72,68,99,89,65,29.97,29.86,4,0,10,0.00
2013-7-14,92,78,69,76,72,68,98,82,51,30.03,29.91,5,1,8,0.00
2013-7-15,87,78,72,77,74,72,99,90,69,30.11,30.01,9,1,12,0.05
2013-7-16,86,79,72,78,74,71,98,85,69,30.18,30.08,9,2,14,0.00
2013-7-17,92,80,72,78,74,71,98,82,55,30.21,30.09,4,1,10,0.00
2013-7-18,91,79,72,78,74,71,98,85,60,30.13,30.01,6,0,10,0.00
2013-7-19,88,77,71,77,74,71,99,89,67,30.07,29.95,6,1,12,0.00
2013-7-20,87,78,73,79,75,72,99,91,71,30.00,29.92,4,0,8,0.10
2013-7-21,88,78,72,78,75,72,99,90,66,30.05,29.98,7,1,11,0.42
2013-7-22,86,75,71,80,74,71,99,95,78,30.07,30.00,7,0,11,0.62
2013-7-23,91,81,72,80,76,71,99,86,65,30.04,29.91,7,1,9,0.00
2013-7-24,91,80,73,80,76,72,98,87,65,29.95,29.87,4,1,11,0.01
2013-7-25,91,80,71,78,74,70,98,84,62,30.01,29.87,3,0,7,0.01
2013-7-26,93,81,70,78,73,70,99,79,48,30.05,29.95,4,0,6,0.00
2013-7-27,83,76,72,77,74,71,98,92,80,29.98,29.87,3,0,10,0.52
2013-7-28,90,79,70,79,75,70,99,88,67,29.99,29.86,7,0,9,0.02
2013-7-29,91,80,74,80,76,73,99,88,67,30.11,29.97,5,0,7,0.00
2013-7-30,92,83,74,82,78,74,99,86,66,30.14,30.05,4,0,9,0.10
2013-7-31,92,81,76,80,77,74,98,88,67,30.10,29.97,4,0,7,0.00
2013-8-1,93,79,72,80,76,71,98,90,65,30.00,29.90,7,0,9,0.96
2013-8-2,94,81,71,79,75,71,99,83,51,30.02,29.91,4,0,5,0.00
2013-8-3,95,83,72,80,76,72,99,81,51,30.06,29.98,3,0,6,0.00
2013-8-4,96,83,74,80,77,74,99,82,53,30.07,29.96,3,0,6,0.00
2013-8-5,94,80,73,81,76,72,99,87,62,30.03,29.94,2,0,9,1.82
2013-8-6,95,82,72,81,76,72,99,85,56,30.01,29.89,6,1,14,1.34
2013-8-7,94,81,73,81,76,72,99,87,63,29.98,29.91,2,0,8,0.00
2013-8-8,95,84,76,81,78,75,99,85,56,29.97,29.89,3,1,7,0.00
2013-8-9,91,82,77,81,78,75,98,87,66,30.04,29.93,5,1,8,0.14
2013-8-10,90,82,75,80,76,74,99,85,66,30.09,30.01,5,1,8,0.00
2013-8-11,90,79,74,80,76,73,98,90,69,30.12,30.07,5,0,8,0.39
2013-8-12,89,80,75,81,77,74,99,92,76,30.11,30.01,2,0,5,0.03
2013-8-13,93,78,72,81,75,71,99,93,67,30.03,29.93,3,0,11,1.98
2013-8-14,86,76,72,76,74,72,99,91,70,29.97,29.89,4,0,9,0.01
2013-8-15,88,78,71,76,74,71,99,88,67,29.98,29.90,4,0,6,0.00
2013-8-16,86,77,71,77,73,70,98,88,65,29.99,29.92,6,1,8,0.85
2013-8-17,75,73,72,73,72,71,99,97,93,30.00,29.92,5,1,7,0.05
2013-8-18,77,72,69,76,72,68,99,98,97,30.04,29.95,7,1,14,2.96
2013-8-19,90,80,73,80,76,73,100,89,67,30.04,29.96,4,1,9,0.01
2013-8-20,88,77,70,79,74,70,99,91,73,30.08,29.98,3,0,6,0.00
2013-8-21,90,80,72,79,75,72,99,87,62,30.13,30.04,4,1,7,0.01
2013-8-22,90,78,71,79,74,70,98,87,61,30.10,29.96,5,1,10,0.30
2013-8-23,83,76,72,76,74,72,99,93,79,30.03,29.94,5,1,9,0.00
2013-8-24,82,76,72,76,73,71,99,93,81,30.12,29.99,4,0,7,0.00
2013-8-25,84,76,71,76,73,71,99,91,74,30.19,30.09,6,1,8,0.01
2013-8-26,88,78,69,73,69,66,97,76,53,30.20,30.09,7,1,12,0.00
2013-8-27,88,75,64,70,67,64,97,78,51,30.12,30.02,3,0,6,0.00
2013-8-28,90,76,65,73,69,64,98,80,49,30.08,30.00,3,0,7,0.00
2013-8-29,93,79,67,75,70,67,99,77,48,30.07,29.97,2,0,4,0.00
2013-8-30,93,80,69,76,72,68,98,80,53,30.03,29.91,2,0,5,0.00
2013-8-31,94,80,71,80,74,70,98,83,58,29.96,29.84,2,0,7,0.51
2013-9-1,93,78,73,79,75,72,99,91,61,29.93,29.87,3,0,11,0.06
2013-9-2,92,82,75,80,77,75,99,87,64,29.98,29.88,4,0,6,0.00
2013-9-3,94,79,71,80,75,70,99,88,59,29.98,29.85,5,1,11,1.05
2013-9-4,92,78,70,81,75,70,99,91,67,30.07,29.95,4,0,8,0.02
2013-9-5,92,80,72,79,76,72,99,86,62,30.11,30.02,4,0,7,0.00
2013-9-6,91,80,72,77,73,70,99,81,52,30.10,29.98,4,0,5,0.00
2013-9-7,93,79,70,75,72,69,98,79,49,30.06,29.96,3,0,5,0.00
2013-9-8,94,80,70,76,73,69,98,81,50,30.00,29.92,3,0,6,0.00
2013-9-9,93,80,70,77,73,69,99,82,50,30.04,29.96,3,0,6,0.00
2013-9-10,91,78,72,76,73,71,97,85,58,30.11,30.02,4,0,7,0.00
2013-9-11,91,79,70,76,72,69,98,79,50,30.12,30.03,7,1,11,0.01
2013-9-12,94,79,70,76,72,69,97,81,51,30.04,29.91,4,0,7,0.00
2013-9-13,94,80,70,76,73,69,99,80,45,29.93,29.80,2,0,7,0.00
2013-9-14,86,77,72,73,69,66,92,78,54,29.99,29.85,8,1,10,0.00
2013-9-15,94,79,68,76,70,61,97,75,45,30.06,29.98,4,0,6,0.00
2013-9-16,94,79,71,77,73,71,99,83,52,30.09,29.99,4,1,9,0.00
2013-9-17,91,79,72,77,73,70,97,84,59,30.08,29.96,6,1,9,0.03
2013-9-18,84,78,73,75,73,71,94,85,71,30.08,30.00,8,2,10,0.01
2013-9-19,89,79,73,76,72,70,96,81,58,30.07,29.98,7,1,11,0.00
2013-9-20,89,78,72,79,75,71,98,91,69,30.01,29.84,5,1,9,0.25
2013-9-21,77,75,70,76,74,70,99,97,94,29.84,29.72,2,0,5,0.34
2013-9-22,80,72,68,71,68,65,98,88,72,29.80,29.73,8,1,10,0.00
2013-9-23,88,76,65,79,71,63,95,87,68,29.88,29.79,4,0,6,0.05
2013-9-24,86,76,70,79,74,69,99,94,77,29.89,29.76,4,1,10,0.88
2013-9-25,79,72,70,74,71,70,99,97,82,29.82,29.76,2,0,5,0.00
2013-12-14,76,65,50,67,62,49,97,89,73,30.00,29.82,5,1,13,0.09
2013-12-15,49,42,31,46,37,30,96,82,68,30.30,30.01,7,1,15,0.00
2013-12-16,60,41,28,40,34,27,98,81,40,30.36,30.25,3,0,5,0.00
2013-12-17,66,45,31,43,36,31,99,77,35,30.35,30.23,4,0,8,0.01
2013-12-18,65,47,35,41,38,34,97,74,36,30.38,30.25,6,1,11,0.00
2013-12-19,70,55,40,59,51,38,97,85,66,30.25,30.07,6,1,10,0.00
2013-12-20,75,66,56,69,64,56,98,93,79,30.12,30.00,6,1,10,0.01
2013-12-21,76,73,69,73,71,68,97,93,89,29.99,29.84,9,4,20,0.00
2013-12-22,73,60,53,72,59,52,98,97,91,30.12,29.83,16,2,19,1.64
2013-12-23,54,46,36,54,44,32,99,91,81,30.41,30.09,7,1,12,0.00
2013-12-24,51,38,28,32,29,25,92,73,46,30.51,30.38,7,1,12,0.00
2013-12-25,46,37,27,34,28,25,93,72,51,30.41,30.31,6,1,10,0.00
2013-12-26,53,43,35,39,34,30,88,71,51,30.38,30.28,4,0,8,0.00
2013-12-27,59,50,42,38,35,33,76,59,39,30.40,30.27,7,1,11,0.00
2013-12-28,52,46,45,46,44,38,98,93,59,30.27,29.94,6,1,12,0.43
2013-12-29,56,48,39,49,46,39,98,93,76,30.12,29.92,4,1,7,0.00
2013-12-30,58,39,38,52,14,-100,99,70,73,30.31,30.11,1,-223,3,0.00
2013-12-31,49,29,41,47,-4,-100,96,61,84,30.41,30.28,4,-312,8,0.01
2014-1-1,60,39,41,57,11,-100,98,69,88,30.34,30.05,5,-269,6,0.00
2014-1-2,58,35,34,56,4,-100,100,58,67,30.32,29.91,8,-269,16,0.00